sensor_id;sensor_type;location;lat;lon;timestamp;pressure;altitude;pressure_sealevel;temperature;humidity
46718;BME280;32448;44.960;-0.698;2022-11-20T00:01:08;101636.94;;;2.86;100.00
46718;BME280;32448;44.960;-0.698;2022-11-20T00:03:36;101636.13;;;2.87;100.00
46718;BME280;32448;44.960;-0.698;2022-11-20T00:06:06;101605.91;;;2.72;100.00
46718;BME280;32448;44.960;-0.698;2022-11-20T00:08:34;101625.44;;;2.81;100.00
46718;BME280;32448;44.960;-0.698;2022-11-20T00:11:27;101629.50;;;2.78;100.00
46718;BME280;32448;44.960;-0.698;2022-11-20T00:13:56;101636.44;;;2.79;100.00
46718;BME280;32448;44.960;-0.698;2022-11-20T00:16:30;101631.19;;;2.77;100.00
46718;BME280;32448;44.960;-0.698;2022-11-20T00:18:58;101629.13;;;2.72;100.00
46718;BME280;32448;44.960;-0.698;2022-11-20T00:21:27;101627.16;;;2.68;100.00
46718;BME280;32448;44.960;-0.698;2022-11-20T00:23:56;101629.94;;;2.71;100.00
46718;BME280;32448;44.960;-0.698;2022-11-20T00:26:26;101626.09;;;2.64;100.00
46718;BME280;32448;44.960;-0.698;2022-11-20T00:28:55;101626.16;;;2.66;100.00
46718;BME280;32448;44.960;-0.698;2022-11-20T00:31:23;101627.56;;;2.61;100.00
46718;BME280;32448;44.960;-0.698;2022-11-20T00:33:51;101628.47;;;2.61;100.00
46718;BME280;32448;44.960;-0.698;2022-11-20T00:36:24;101630.06;;;2.59;100.00
46718;BME280;32448;44.960;-0.698;2022-11-20T00:38:52;101610.34;;;2.46;100.00
46718;BME280;32448;44.960;-0.698;2022-11-20T00:41:20;101609.44;;;2.46;100.00
46718;BME280;32448;44.960;-0.698;2022-11-20T00:43:49;101630.75;;;2.56;100.00
46718;BME280;32448;44.960;-0.698;2022-11-20T00:46:23;101628.16;;;2.56;100.00
46718;BME280;32448;44.960;-0.698;2022-11-20T00:48:50;101627.38;;;2.58;100.00
46718;BME280;32448;44.960;-0.698;2022-11-20T00:51:20;101614.22;;;2.40;100.00
46718;BME280;32448;44.960;-0.698;2022-11-20T00:53:48;101630.38;;;2.50;100.00
46718;BME280;32448;44.960;-0.698;2022-11-20T00:56:18;101607.38;;;2.40;100.00
46718;BME280;32448;44.960;-0.698;2022-11-20T00:58:47;101603.81;;;2.38;100.00
46718;BME280;32448;44.960;-0.698;2022-11-20T01:01:20;101608.28;;;2.41;100.00
46718;BME280;32448;44.960;-0.698;2022-11-20T01:03:48;101614.59;;;2.46;100.00
46718;BME280;32448;44.960;-0.698;2022-11-20T01:06:24;101619.59;;;2.43;100.00
46718;BME280;32448;44.960;-0.698;2022-11-20T01:08:54;101604.50;;;2.36;100.00
46718;BME280;32448;44.960;-0.698;2022-11-20T01:11:24;101612.34;;;2.37;100.00
46718;BME280;32448;44.960;-0.698;2022-11-20T01:13:53;101622.75;;;2.39;100.00
46718;BME280;32448;44.960;-0.698;2022-11-20T01:16:35;101603.34;;;2.31;100.00
46718;BME280;32448;44.960;-0.698;2022-11-20T01:19:05;101606.97;;;2.34;100.00
46718;BME280;32448;44.960;-0.698;2022-11-20T01:21:35;101599.25;;;2.34;100.00
46718;BME280;32448;44.960;-0.698;2022-11-20T01:24:03;101608.06;;;2.38;100.00
46718;BME280;32448;44.960;-0.698;2022-11-20T01:26:34;101605.50;;;2.38;100.00
46718;BME280;32448;44.960;-0.698;2022-11-20T01:29:02;101602.13;;;2.39;100.00
46718;BME280;32448;44.960;-0.698;2022-11-20T01:31:36;101603.81;;;2.38;100.00
46718;BME280;32448;44.960;-0.698;2022-11-20T01:34:13;101620.38;;;2.42;100.00
46718;BME280;32448;44.960;-0.698;2022-11-20T01:36:42;101610.97;;;2.42;100.00
46718;BME280;32448;44.960;-0.698;2022-11-20T01:39:12;101625.91;;;2.48;100.00
46718;BME280;32448;44.960;-0.698;2022-11-20T01:41:41;101614.59;;;2.46;100.00
46718;BME280;32448;44.960;-0.698;2022-11-20T01:47:40;101610.09;;;2.56;100.00
46718;BME280;32448;44.960;-0.698;2022-11-20T01:50:14;101614.78;;;2.62;100.00
46718;BME280;32448;44.960;-0.698;2022-11-20T01:55:22;101602.34;;;2.70;100.00
46718;BME280;32448;44.960;-0.698;2022-11-20T01:57:51;101607.69;;;2.73;100.00
46718;BME280;32448;44.960;-0.698;2022-11-20T02:00:20;101604.56;;;2.78;100.00
46718;BME280;32448;44.960;-0.698;2022-11-20T02:02:53;101611.72;;;2.82;100.00
46718;BME280;32448;44.960;-0.698;2022-11-20T02:08:05;101604.97;;;2.84;100.00
46718;BME280;32448;44.960;-0.698;2022-11-20T02:10:33;101590.88;;;2.79;100.00
46718;BME280;32448;44.960;-0.698;2022-11-20T02:13:01;101607.22;;;2.93;100.00
46718;BME280;32448;44.960;-0.698;2022-11-20T02:15:47;101601.06;;;2.91;100.00
46718;BME280;32448;44.960;-0.698;2022-11-20T02:18:16;101597.50;;;2.89;100.00
46718;BME280;32448;44.960;-0.698;2022-11-20T02:20:46;101596.53;;;2.87;100.00
46718;BME280;32448;44.960;-0.698;2022-11-20T02:24:02;101602.84;;;2.92;100.00
46718;BME280;32448;44.960;-0.698;2022-11-20T02:26:23;101594.50;;;2.96;100.00
46718;BME280;32448;44.960;-0.698;2022-11-20T02:28:50;101587.66;;;2.97;100.00
46718;BME280;32448;44.960;-0.698;2022-11-20T02:31:17;101589.69;;;3.02;100.00
46718;BME280;32448;44.960;-0.698;2022-11-20T02:33:45;101577.88;;;3.06;100.00
46718;BME280;32448;44.960;-0.698;2022-11-20T02:36:15;101567.72;;;3.09;100.00
46718;BME280;32448;44.960;-0.698;2022-11-20T02:38:43;101577.06;;;3.21;100.00
46718;BME280;32448;44.960;-0.698;2022-11-20T02:41:10;101570.41;;;3.25;100.00
46718;BME280;32448;44.960;-0.698;2022-11-20T02:43:37;101576.00;;;3.33;100.00
46718;BME280;32448;44.960;-0.698;2022-11-20T02:46:07;101570.13;;;3.35;100.00
46718;BME280;32448;44.960;-0.698;2022-11-20T02:48:34;101553.63;;;3.33;100.00
46718;BME280;32448;44.960;-0.698;2022-11-20T02:51:02;101568.63;;;3.39;100.00
46718;BME280;32448;44.960;-0.698;2022-11-20T02:53:29;101564.59;;;3.44;100.00
46718;BME280;32448;44.960;-0.698;2022-11-20T02:55:56;101571.22;;;3.53;100.00
46718;BME280;32448;44.960;-0.698;2022-11-20T02:58:24;101565.31;;;3.56;100.00
46718;BME280;32448;44.960;-0.698;2022-11-20T03:00:52;101538.16;;;3.48;100.00
46718;BME280;32448;44.960;-0.698;2022-11-20T03:03:19;101560.50;;;3.62;100.00
46718;BME280;32448;44.960;-0.698;2022-11-20T03:05:46;101547.69;;;3.63;100.00
46718;BME280;32448;44.960;-0.698;2022-11-20T03:08:13;101556.84;;;3.73;100.00
46718;BME280;32448;44.960;-0.698;2022-11-20T03:10:41;101552.72;;;3.77;100.00
46718;BME280;32448;44.960;-0.698;2022-11-20T03:13:08;101545.84;;;3.77;100.00
46718;BME280;32448;44.960;-0.698;2022-11-20T03:15:36;101540.88;;;3.80;100.00
46718;BME280;32448;44.960;-0.698;2022-11-20T03:18:04;101529.81;;;3.83;100.00
46718;BME280;32448;44.960;-0.698;2022-11-20T03:20:33;101524.88;;;3.87;100.00
46718;BME280;32448;44.960;-0.698;2022-11-20T03:23:01;101520.94;;;3.94;100.00
46718;BME280;32448;44.960;-0.698;2022-11-20T03:25:28;101516.41;;;3.90;100.00
46718;BME280;32448;44.960;-0.698;2022-11-20T03:27:55;101515.69;;;3.92;100.00
46718;BME280;32448;44.960;-0.698;2022-11-20T03:30:23;101516.44;;;4.06;100.00
46718;BME280;32448;44.960;-0.698;2022-11-20T03:32:56;101509.41;;;4.03;100.00
46718;BME280;32448;44.960;-0.698;2022-11-20T03:35:23;101513.22;;;4.10;100.00
46718;BME280;32448;44.960;-0.698;2022-11-20T03:37:50;101508.03;;;4.10;100.00
46718;BME280;32448;44.960;-0.698;2022-11-20T03:40:17;101489.78;;;4.07;100.00
46718;BME280;32448;44.960;-0.698;2022-11-20T03:42:45;101495.53;;;4.18;100.00
46718;BME280;32448;44.960;-0.698;2022-11-20T03:45:14;101478.31;;;4.18;100.00
46718;BME280;32448;44.960;-0.698;2022-11-20T03:47:41;101466.91;;;4.15;100.00
46718;BME280;32448;44.960;-0.698;2022-11-20T03:50:10;101477.25;;;4.31;100.00
46718;BME280;32448;44.960;-0.698;2022-11-20T03:52:39;101477.19;;;4.29;100.00
46718;BME280;32448;44.960;-0.698;2022-11-20T03:55:07;101472.97;;;4.31;100.00
46718;BME280;32448;44.960;-0.698;2022-11-20T03:57:34;101466.09;;;4.32;100.00
46718;BME280;32448;44.960;-0.698;2022-11-20T04:00:03;101464.47;;;4.34;100.00
46718;BME280;32448;44.960;-0.698;2022-11-20T04:02:30;101476.28;;;4.45;100.00
46718;BME280;32448;44.960;-0.698;2022-11-20T04:04:57;101471.28;;;4.48;100.00
46718;BME280;32448;44.960;-0.698;2022-11-20T04:07:24;101465.31;;;4.49;100.00
46718;BME280;32448;44.960;-0.698;2022-11-20T04:09:52;101471.44;;;4.51;100.00
46718;BME280;32448;44.960;-0.698;2022-11-20T04:12:19;101480.16;;;4.53;100.00
46718;BME280;32448;44.960;-0.698;2022-11-20T04:14:46;101467.38;;;4.56;100.00
46718;BME280;32448;44.960;-0.698;2022-11-20T04:17:13;101472.72;;;4.59;100.00
46718;BME280;32448;44.960;-0.698;2022-11-20T04:19:40;101472.97;;;4.64;100.00
46718;BME280;32448;44.960;-0.698;2022-11-20T04:22:07;101468.75;;;4.66;100.00
46718;BME280;32448;44.960;-0.698;2022-11-20T04:24:35;101456.13;;;4.72;100.00
46718;BME280;32448;44.960;-0.698;2022-11-20T04:27:02;101464.28;;;4.80;100.00
46718;BME280;32448;44.960;-0.698;2022-11-20T04:29:30;101467.84;;;4.82;100.00
46718;BME280;32448;44.960;-0.698;2022-11-20T04:31:57;101463.84;;;4.88;100.00
46718;BME280;32448;44.960;-0.698;2022-11-20T04:34:24;101465.00;;;4.93;100.00
46718;BME280;32448;44.960;-0.698;2022-11-20T04:36:51;101457.38;;;4.96;100.00
46718;BME280;32448;44.960;-0.698;2022-11-20T04:39:18;101439.97;;;4.94;100.00
46718;BME280;32448;44.960;-0.698;2022-11-20T04:41:46;101446.34;;;5.00;100.00
46718;BME280;32448;44.960;-0.698;2022-11-20T04:44:14;101437.69;;;5.00;100.00
46718;BME280;32448;44.960;-0.698;2022-11-20T04:46:42;101449.00;;;5.02;100.00
46718;BME280;32448;44.960;-0.698;2022-11-20T04:49:10;101437.75;;;5.01;100.00
46718;BME280;32448;44.960;-0.698;2022-11-20T04:51:37;101446.50;;;5.03;100.00
46718;BME280;32448;44.960;-0.698;2022-11-20T04:54:04;101429.09;;;5.01;100.00
46718;BME280;32448;44.960;-0.698;2022-11-20T04:56:32;101412.13;;;4.90;100.00
46718;BME280;32448;44.960;-0.698;2022-11-20T04:59:01;101429.41;;;5.07;100.00
46718;BME280;32448;44.960;-0.698;2022-11-20T05:01:29;101421.25;;;4.99;100.00
46718;BME280;32448;44.960;-0.698;2022-11-20T05:03:56;101428.59;;;5.08;100.00
46718;BME280;32448;44.960;-0.698;2022-11-20T05:06:23;101432.22;;;5.11;100.00
46718;BME280;32448;44.960;-0.698;2022-11-20T05:08:51;101433.28;;;5.15;100.00
46718;BME280;32448;44.960;-0.698;2022-11-20T05:11:20;101437.72;;;5.18;100.00
46718;BME280;32448;44.960;-0.698;2022-11-20T05:13:49;101427.28;;;5.16;100.00
46718;BME280;32448;44.960;-0.698;2022-11-20T05:16:22;101410.69;;;5.12;100.00
46718;BME280;32448;44.960;-0.698;2022-11-20T05:18:51;101432.00;;;5.25;100.00
46718;BME280;32448;44.960;-0.698;2022-11-20T05:21:19;101426.38;;;5.33;100.00
46718;BME280;32448;44.960;-0.698;2022-11-20T05:23:47;101425.50;;;5.33;100.00
46718;BME280;32448;44.960;-0.698;2022-11-20T05:26:19;101416.91;;;5.34;100.00
46718;BME280;32448;44.960;-0.698;2022-11-20T05:28:48;101429.47;;;5.44;100.00
46718;BME280;32448;44.960;-0.698;2022-11-20T05:31:21;101426.78;;;5.41;100.00
46718;BME280;32448;44.960;-0.698;2022-11-20T05:33:53;101426.81;;;5.42;100.00
46718;BME280;32448;44.960;-0.698;2022-11-20T05:36:21;101423.34;;;5.42;100.00
46718;BME280;32448;44.960;-0.698;2022-11-20T05:38:48;101422.59;;;5.44;100.00
46718;BME280;32448;44.960;-0.698;2022-11-20T05:41:19;101414.00;;;5.45;100.00
46718;BME280;32448;44.960;-0.698;2022-11-20T05:43:48;101419.50;;;5.52;100.00
46718;BME280;32448;44.960;-0.698;2022-11-20T05:46:18;101429.25;;;5.57;100.00
46718;BME280;32448;44.960;-0.698;2022-11-20T05:48:53;101423.25;;;5.58;100.00
46718;BME280;32448;44.960;-0.698;2022-11-20T05:51:21;101426.66;;;5.57;100.00
46718;BME280;32448;44.960;-0.698;2022-11-20T05:53:48;101426.91;;;5.62;100.00
46718;BME280;32448;44.960;-0.698;2022-11-20T05:56:19;101419.94;;;5.61;100.00
46718;BME280;32448;44.960;-0.698;2022-11-20T05:58:48;101427.09;;;5.66;100.00
46718;BME280;32448;44.960;-0.698;2022-11-20T06:01:21;101421.91;;;5.66;100.00
46718;BME280;32448;44.960;-0.698;2022-11-20T06:03:49;101417.69;;;5.68;100.00
46718;BME280;32448;44.960;-0.698;2022-11-20T06:06:19;101431.00;;;5.76;100.00
46718;BME280;32448;44.960;-0.698;2022-11-20T06:08:47;101428.47;;;5.77;100.00
46718;BME280;32448;44.960;-0.698;2022-11-20T06:11:15;101432.19;;;5.82;100.00
46718;BME280;32448;44.960;-0.698;2022-11-20T06:13:42;101426.31;;;5.86;100.00
46718;BME280;32448;44.960;-0.698;2022-11-20T06:16:11;101416.72;;;5.84;100.00
46718;BME280;32448;44.960;-0.698;2022-11-20T06:18:39;101422.41;;;5.95;100.00
46718;BME280;32448;44.960;-0.698;2022-11-20T06:21:09;101414.56;;;5.93;100.00
46718;BME280;32448;44.960;-0.698;2022-11-20T06:23:37;101414.47;;;5.92;100.00
46718;BME280;32448;44.960;-0.698;2022-11-20T06:26:06;101412.03;;;5.95;100.00
46718;BME280;32448;44.960;-0.698;2022-11-20T06:28:34;101424.31;;;5.99;100.00
46718;BME280;32448;44.960;-0.698;2022-11-20T06:31:02;101413.94;;;5.99;100.00
46718;BME280;32448;44.960;-0.698;2022-11-20T06:33:30;101386.03;;;5.93;100.00
46718;BME280;32448;44.960;-0.698;2022-11-20T06:35:58;101401.94;;;6.01;100.00
46718;BME280;32448;44.960;-0.698;2022-11-20T06:38:31;101391.38;;;5.96;100.00
46718;BME280;32448;44.960;-0.698;2022-11-20T06:40:58;101398.44;;;6.00;100.00
46718;BME280;32448;44.960;-0.698;2022-11-20T06:43:26;101395.78;;;5.99;100.00
46718;BME280;32448;44.960;-0.698;2022-11-20T06:45:56;101394.16;;;6.01;100.00
46718;BME280;32448;44.960;-0.698;2022-11-20T06:48:25;101402.16;;;6.05;100.00
46718;BME280;32448;44.960;-0.698;2022-11-20T06:50:52;101387.09;;;5.98;100.00
46718;BME280;32448;44.960;-0.698;2022-11-20T06:53:20;101396.88;;;6.04;100.00
46718;BME280;32448;44.960;-0.698;2022-11-20T06:55:48;101393.00;;;6.13;100.00
46718;BME280;32448;44.960;-0.698;2022-11-20T06:58:16;101375.16;;;6.02;100.00
46718;BME280;32448;44.960;-0.698;2022-11-20T07:00:44;101393.53;;;6.26;100.00
46718;BME280;32448;44.960;-0.698;2022-11-20T07:03:11;101390.88;;;6.24;100.00
46718;BME280;32448;44.960;-0.698;2022-11-20T07:05:39;101389.41;;;6.31;100.00
46718;BME280;32448;44.960;-0.698;2022-11-20T07:08:07;101377.31;;;6.31;100.00
46718;BME280;32448;44.960;-0.698;2022-11-20T07:10:35;101375.63;;;6.32;100.00
46718;BME280;32448;44.960;-0.698;2022-11-20T07:13:03;101364.16;;;6.27;100.00
46718;BME280;32448;44.960;-0.698;2022-11-20T07:15:37;101381.19;;;6.41;100.00
46718;BME280;32448;44.960;-0.698;2022-11-20T07:18:04;101387.34;;;6.43;100.00
46718;BME280;32448;44.960;-0.698;2022-11-20T07:20:31;101384.59;;;6.38;100.00
46718;BME280;32448;44.960;-0.698;2022-11-20T07:22:59;101375.75;;;6.35;100.00
46718;BME280;32448;44.960;-0.698;2022-11-20T07:25:27;101362.25;;;6.22;100.00
46718;BME280;32448;44.960;-0.698;2022-11-20T07:27:58;101387.34;;;6.43;100.00
46718;BME280;32448;44.960;-0.698;2022-11-20T07:30:28;101374.06;;;6.35;100.00
46718;BME280;32448;44.960;-0.698;2022-11-20T07:32:56;101393.72;;;6.49;100.00
46718;BME280;32448;44.960;-0.698;2022-11-20T07:35:24;101386.03;;;6.52;100.00
46718;BME280;32448;44.960;-0.698;2022-11-20T07:37:52;101385.50;;;6.60;100.00
46718;BME280;32448;44.960;-0.698;2022-11-20T07:40:19;101379.28;;;6.56;100.00
46718;BME280;32448;44.960;-0.698;2022-11-20T07:42:54;101395.53;;;6.71;100.00
46718;BME280;32448;44.960;-0.698;2022-11-20T07:45:23;101392.56;;;6.64;100.00
46718;BME280;32448;44.960;-0.698;2022-11-20T07:47:50;101415.94;;;6.83;100.00
46718;BME280;32448;44.960;-0.698;2022-11-20T07:50:26;101418.09;;;6.93;100.00
46718;BME280;32448;44.960;-0.698;2022-11-20T07:53:02;101413.78;;;6.93;100.00
46718;BME280;32448;44.960;-0.698;2022-11-20T07:55:30;101414.53;;;6.91;100.00
46718;BME280;32448;44.960;-0.698;2022-11-20T07:57:57;101420.75;;;6.94;100.00
46718;BME280;32448;44.960;-0.698;2022-11-20T08:00:26;101427.34;;;7.07;100.00
46718;BME280;32448;44.960;-0.698;2022-11-20T08:02:53;101432.44;;;7.04;100.00
46718;BME280;32448;44.960;-0.698;2022-11-20T08:05:20;101424.56;;;7.03;100.00
46718;BME280;32448;44.960;-0.698;2022-11-20T08:07:48;101393.97;;;6.96;100.00
46718;BME280;32448;44.960;-0.698;2022-11-20T08:10:16;101416.38;;;7.14;100.00
46718;BME280;32448;44.960;-0.698;2022-11-20T08:12:45;101419.81;;;7.13;100.00
46718;BME280;32448;44.960;-0.698;2022-11-20T08:15:31;101431.25;;;7.18;100.00
46718;BME280;32448;44.960;-0.698;2022-11-20T08:18:00;101427.00;;;7.20;100.00
46718;BME280;32448;44.960;-0.698;2022-11-20T08:20:48;101431.22;;;7.17;100.00
46718;BME280;32448;44.960;-0.698;2022-11-20T08:23:17;101434.88;;;7.22;100.00
46718;BME280;32448;44.960;-0.698;2022-11-20T08:25:49;101426.63;;;7.32;100.00
46718;BME280;32448;44.960;-0.698;2022-11-20T08:28:18;101421.56;;;7.35;100.00
46718;BME280;32448;44.960;-0.698;2022-11-20T08:30:48;101435.88;;;7.46;100.00
46718;BME280;32448;44.960;-0.698;2022-11-20T08:33:17;101427.13;;;7.44;100.00
46718;BME280;32448;44.960;-0.698;2022-11-20T08:35:44;101425.22;;;7.40;100.00
46718;BME280;32448;44.960;-0.698;2022-11-20T08:38:12;101419.19;;;7.41;100.00
46718;BME280;32448;44.960;-0.698;2022-11-20T08:40:39;101426.59;;;7.53;100.00
46718;BME280;32448;44.960;-0.698;2022-11-20T08:43:06;101417.91;;;7.52;100.00
46718;BME280;32448;44.960;-0.698;2022-11-20T08:45:33;101421.13;;;7.67;100.00
46718;BME280;32448;44.960;-0.698;2022-11-20T08:48:02;101426.31;;;7.67;100.00
46718;BME280;32448;44.960;-0.698;2022-11-20T08:50:30;101421.88;;;7.87;100.00
46718;BME280;32448;44.960;-0.698;2022-11-20T08:53:04;101417.56;;;7.88;100.00
46718;BME280;32448;44.960;-0.698;2022-11-20T08:55:32;101420.28;;;7.91;100.00
46718;BME280;32448;44.960;-0.698;2022-11-20T08:58:03;101412.88;;;8.01;100.00
46718;BME280;32448;44.960;-0.698;2022-11-20T09:00:31;101411.34;;;7.84;100.00
46718;BME280;32448;44.960;-0.698;2022-11-20T09:02:59;101416.72;;;7.89;100.00
46718;BME280;32448;44.960;-0.698;2022-11-20T09:05:28;101425.56;;;7.92;100.00
46718;BME280;32448;44.960;-0.698;2022-11-20T09:07:57;101419.38;;;8.13;100.00
46718;BME280;32448;44.960;-0.698;2022-11-20T09:10:26;101391.03;;;7.98;100.00
46718;BME280;32448;44.960;-0.698;2022-11-20T09:12:54;101412.44;;;8.13;100.00
46718;BME280;32448;44.960;-0.698;2022-11-20T09:15:23;101411.94;;;8.23;100.00
46718;BME280;32448;44.960;-0.698;2022-11-20T09:17:52;101411.06;;;8.23;100.00
46718;BME280;32448;44.960;-0.698;2022-11-20T09:20:19;101387.41;;;8.17;100.00
46718;BME280;32448;44.960;-0.698;2022-11-20T09:22:47;101399.94;;;8.27;100.00
46718;BME280;32448;44.960;-0.698;2022-11-20T09:25:14;101379.19;;;8.30;100.00
46718;BME280;32448;44.960;-0.698;2022-11-20T09:27:41;101381.25;;;8.37;100.00
46718;BME280;32448;44.960;-0.698;2022-11-20T09:30:10;101375.34;;;8.43;100.00
46718;BME280;32448;44.960;-0.698;2022-11-20T09:32:38;101380.69;;;8.71;100.00
46718;BME280;32448;44.960;-0.698;2022-11-20T09:35:06;101372.66;;;8.65;100.00
46718;BME280;32448;44.960;-0.698;2022-11-20T09:37:35;101380.06;;;8.78;100.00
46718;BME280;32448;44.960;-0.698;2022-11-20T09:40:02;101379.47;;;8.87;100.00
46718;BME280;32448;44.960;-0.698;2022-11-20T09:42:46;101374.38;;;8.90;100.00
46718;BME280;32448;44.960;-0.698;2022-11-20T09:45:39;101358.00;;;8.94;100.00
46718;BME280;32448;44.960;-0.698;2022-11-20T09:56:23;101371.31;;;9.30;100.00
46718;BME280;32448;44.960;-0.698;2022-11-20T09:58:54;101396.19;;;9.45;100.00
46718;BME280;32448;44.960;-0.698;2022-11-20T10:01:28;101384.06;;;9.47;100.00
46718;BME280;32448;44.960;-0.698;2022-11-20T10:04:16;101361.69;;;9.56;100.00
46718;BME280;32448;44.960;-0.698;2022-11-20T10:09:56;101402.38;;;9.77;100.00
46718;BME280;32448;44.960;-0.698;2022-11-20T10:20:47;101424.84;;;9.72;100.00
46718;BME280;32448;44.960;-0.698;2022-11-20T10:23:43;101418.09;;;9.79;100.00
46718;BME280;32448;44.960;-0.698;2022-11-20T10:31:49;101445.84;;;10.05;100.00
46718;BME280;32448;44.960;-0.698;2022-11-20T10:37:15;101443.59;;;10.16;100.00
46718;BME280;32448;44.960;-0.698;2022-11-20T10:42:57;101453.72;;;10.34;100.00
46718;BME280;32448;44.960;-0.698;2022-11-20T10:45:35;101464.31;;;10.38;100.00
46718;BME280;32448;44.960;-0.698;2022-11-20T10:50:40;101456.53;;;10.41;100.00
46718;BME280;32448;44.960;-0.698;2022-11-20T10:53:55;101464.91;;;10.60;100.00
46718;BME280;32448;44.960;-0.698;2022-11-20T11:02:41;101419.03;;;10.72;100.00
46718;BME280;32448;44.960;-0.698;2022-11-20T11:05:39;101460.66;;;10.96;100.00
46718;BME280;32448;44.960;-0.698;2022-11-20T11:08:17;101444.31;;;11.05;100.00
46718;BME280;32448;44.960;-0.698;2022-11-20T11:13:19;101445.59;;;11.20;100.00
46718;BME280;32448;44.960;-0.698;2022-11-20T11:15:47;101432.50;;;11.20;100.00
46718;BME280;32448;44.960;-0.698;2022-11-20T11:18:32;101431.72;;;11.23;100.00
46718;BME280;32448;44.960;-0.698;2022-11-20T11:21:02;101438.97;;;11.35;100.00
46718;BME280;32448;44.960;-0.698;2022-11-20T11:23:39;101440.03;;;11.43;100.00
46718;BME280;32448;44.960;-0.698;2022-11-20T11:26:20;101438.34;;;11.45;100.00
46718;BME280;32448;44.960;-0.698;2022-11-20T11:31:33;101431.75;;;11.62;100.00
46718;BME280;32448;44.960;-0.698;2022-11-20T11:34:06;101424.75;;;11.61;100.00
46718;BME280;32448;44.960;-0.698;2022-11-20T11:36:34;101422.56;;;11.78;100.00
46718;BME280;32448;44.960;-0.698;2022-11-20T11:39:05;101417.56;;;11.88;100.00
46718;BME280;32448;44.960;-0.698;2022-11-20T11:41:34;101408.09;;;11.95;100.00
46718;BME280;32448;44.960;-0.698;2022-11-20T11:44:23;101417.00;;;12.01;100.00
46718;BME280;32448;44.960;-0.698;2022-11-20T11:50:14;101412.97;;;12.19;100.00
46718;BME280;32448;44.960;-0.698;2022-11-20T11:55:33;101433.97;;;12.20;100.00
46718;BME280;32448;44.960;-0.698;2022-11-20T12:00:40;101423.63;;;12.28;100.00
46718;BME280;32448;44.960;-0.698;2022-11-20T12:05:45;101404.28;;;12.21;100.00
46718;BME280;32448;44.960;-0.698;2022-11-20T12:11:46;101422.00;;;12.33;100.00
46718;BME280;32448;44.960;-0.698;2022-11-20T12:14:50;101404.63;;;12.38;100.00
46718;BME280;32448;44.960;-0.698;2022-11-20T12:17:11;101428.72;;;12.64;100.00
46718;BME280;32448;44.960;-0.698;2022-11-20T12:19:39;101426.13;;;12.65;100.00
46718;BME280;32448;44.960;-0.698;2022-11-20T12:22:34;101436.75;;;12.73;100.00
46718;BME280;32448;44.960;-0.698;2022-11-20T12:28:07;101424.75;;;12.86;100.00
46718;BME280;32448;44.960;-0.698;2022-11-20T12:31:11;101432.50;;;12.78;100.00
46718;BME280;32448;44.960;-0.698;2022-11-20T12:42:00;101428.41;;;12.49;100.00
46718;BME280;32448;44.960;-0.698;2022-11-20T12:53:50;101459.25;;;13.07;100.00
46718;BME280;32448;44.960;-0.698;2022-11-20T12:56:38;101457.78;;;13.21;100.00
46718;BME280;32448;44.960;-0.698;2022-11-20T13:07:35;101463.75;;;13.12;100.00
46718;BME280;32448;44.960;-0.698;2022-11-20T13:10:10;101484.59;;;13.05;100.00
46718;BME280;32448;44.960;-0.698;2022-11-20T13:13:10;101465.56;;;12.68;100.00
46718;BME280;32448;44.960;-0.698;2022-11-20T13:16:15;101473.53;;;12.74;100.00
46718;BME280;32448;44.960;-0.698;2022-11-20T13:18:51;101480.97;;;12.98;100.00
46718;BME280;32448;44.960;-0.698;2022-11-20T13:21:36;101468.63;;;12.94;100.00
46718;BME280;32448;44.960;-0.698;2022-11-20T13:29:43;101469.38;;;12.86;100.00
46718;BME280;32448;44.960;-0.698;2022-11-20T13:32:20;101458.25;;;12.99;100.00
46718;BME280;32448;44.960;-0.698;2022-11-20T13:34:57;101462.53;;;12.95;100.00
46718;BME280;32448;44.960;-0.698;2022-11-20T13:37:34;101470.28;;;12.88;100.00
46718;BME280;32448;44.960;-0.698;2022-11-20T13:42:37;101492.09;;;12.85;100.00
46718;BME280;32448;44.960;-0.698;2022-11-20T13:45:20;101496.69;;;12.97;100.00
46718;BME280;32448;44.960;-0.698;2022-11-20T13:47:50;101493.09;;;12.92;100.00
46718;BME280;32448;44.960;-0.698;2022-11-20T13:50:18;101498.84;;;13.18;100.00
46718;BME280;32448;44.960;-0.698;2022-11-20T14:01:14;101486.28;;;13.01;100.00
46718;BME280;32448;44.960;-0.698;2022-11-20T14:03:38;101503.66;;;12.96;100.00
46718;BME280;32448;44.960;-0.698;2022-11-20T14:06:29;101501.81;;;12.89;100.00
46718;BME280;32448;44.960;-0.698;2022-11-20T14:08:59;101498.16;;;12.81;100.00
46718;BME280;32448;44.960;-0.698;2022-11-20T14:11:30;101499.88;;;12.81;100.00
46718;BME280;32448;44.960;-0.698;2022-11-20T14:14:02;101501.84;;;12.91;100.00
46718;BME280;32448;44.960;-0.698;2022-11-20T14:16:36;101502.50;;;12.82;100.00
46718;BME280;32448;44.960;-0.698;2022-11-20T14:21:49;101492.91;;;12.83;100.00
46718;BME280;32448;44.960;-0.698;2022-11-20T14:24:22;101488.41;;;12.75;100.00
46718;BME280;32448;44.960;-0.698;2022-11-20T14:26:51;101491.00;;;12.74;100.00
46718;BME280;32448;44.960;-0.698;2022-11-20T14:29:22;101506.66;;;12.71;100.00
46718;BME280;32448;44.960;-0.698;2022-11-20T14:31:54;101521.16;;;12.52;100.00
46718;BME280;32448;44.960;-0.698;2022-11-20T14:34:27;101515.56;;;12.35;100.00
46718;BME280;32448;44.960;-0.698;2022-11-20T14:37:10;101542.78;;;12.42;100.00
46718;BME280;32448;44.960;-0.698;2022-11-20T14:39:49;101540.78;;;12.30;100.00
46718;BME280;32448;44.960;-0.698;2022-11-20T14:42:22;101545.69;;;12.17;100.00
46718;BME280;32448;44.960;-0.698;2022-11-20T14:44:54;101553.44;;;12.11;100.00
46718;BME280;32448;44.960;-0.698;2022-11-20T14:47:27;101561.78;;;11.94;100.00
46718;BME280;32448;44.960;-0.698;2022-11-20T14:49:57;101568.75;;;11.92;100.00
46718;BME280;32448;44.960;-0.698;2022-11-20T14:52:27;101563.41;;;11.89;100.00
46718;BME280;32448;44.960;-0.698;2022-11-20T14:54:58;101559.66;;;11.78;100.00